RYR43HC LICA-EPKK
Flight info
| Callsign | RYR43HC |
|---|---|
| Flight time | 2h 6m |
| Altitude | 36000 |
| Route | ARBUM DCT EVINO DCT KUTID DCT VEGAN DCT XOLTA DCT VEBAL DCT MOCON M985 MEBAN |
| Aircraft | B738/M-SDE3FGIJ1LRWY/SB1 |
Departure
| Time | 2026-04-23 11:17 |
|---|---|
| Airport | Lamezia Terme Sant'Eufemia International Airport (LICA) |
Arrival
| Time | 2026-04-23 13:23 |
|---|---|
| Airport | Kraków John Paul II International Airport (EPKK) |
| Time | Latitude | Longitude | Altitude | Speed | Heading |
|---|---|---|---|---|---|
| 2026-04-23 10:30 | 38.90874 | 16.24450 | 29 ft | 0 kts | 49° |
| 2026-04-23 11:10 | 38.90874 | 16.24452 | 31 ft | 0 kts | 59° |
| 2026-04-23 11:10 | 38.90872 | 16.24456 | 31 ft | 1 kts | 102° |
| 2026-04-23 11:10 | 38.90863 | 16.24456 | 30 ft | 3 kts | 185° |
| 2026-04-23 11:10 | 38.90833 | 16.24453 | 31 ft | 6 kts | 180° |
| 2026-04-23 11:11 | 38.90805 | 16.24504 | 30 ft | 10 kts | 101° |
| 2026-04-23 11:11 | 38.90767 | 16.24578 | 31 ft | 10 kts | 142° |
| 2026-04-23 11:11 | 38.90717 | 16.24643 | 31 ft | 10 kts | 111° |
| 2026-04-23 11:11 | 38.90705 | 16.24735 | 31 ft | 11 kts | 98° |
| 2026-04-23 11:12 | 38.90691 | 16.24854 | 31 ft | 16 kts | 98° |
| 2026-04-23 11:12 | 38.90673 | 16.24996 | 32 ft | 16 kts | 99° |
| 2026-04-23 11:12 | 38.90657 | 16.25137 | 33 ft | 16 kts | 98° |
| 2026-04-23 11:12 | 38.90641 | 16.25278 | 32 ft | 16 kts | 97° |
| 2026-04-23 11:13 | 38.90626 | 16.25418 | 32 ft | 15 kts | 97° |
| 2026-04-23 11:13 | 38.90610 | 16.25552 | 32 ft | 15 kts | 98° |
| 2026-04-23 11:13 | 38.90594 | 16.25686 | 31 ft | 16 kts | 98° |
| 2026-04-23 11:13 | 38.90576 | 16.25845 | 31 ft | 20 kts | 99° |
| 2026-04-23 11:14 | 38.90555 | 16.26018 | 33 ft | 20 kts | 98° |
| 2026-04-23 11:14 | 38.90540 | 16.26151 | 32 ft | 10 kts | 98° |
| 2026-04-23 11:14 | 38.90528 | 16.26240 | 32 ft | 10 kts | 104° |
| 2026-04-23 11:14 | 38.90485 | 16.26302 | 32 ft | 10 kts | 163° |
| 2026-04-23 11:15 | 38.90417 | 16.26298 | 31 ft | 10 kts | 188° |
| 2026-04-23 11:15 | 38.90350 | 16.26285 | 32 ft | 10 kts | 192° |
| 2026-04-23 11:15 | 38.90310 | 16.26228 | 33 ft | 9 kts | 264° |
| 2026-04-23 11:15 | 38.90318 | 16.26142 | 33 ft | 11 kts | 278° |
| 2026-04-23 11:16 | 38.90338 | 16.25961 | 30 ft | 42 kts | 278° |
| 2026-04-23 11:16 | 38.90412 | 16.25313 | 33 ft | 102 kts | 279° |
| 2026-04-23 11:16 | 38.90521 | 16.24189 | 48 ft | 147 kts | 272° |
| 2026-04-23 11:16 | 38.90596 | 16.23425 | 229 ft | 156 kts | 275° |
| 2026-04-23 11:17 | 38.90765 | 16.22012 | 795 ft | 160 kts | 277° |
| 2026-04-23 11:17 | 38.90940 | 16.20637 | 1356 ft | 163 kts | 278° |
| 2026-04-23 11:17 | 38.91137 | 16.19062 | 1555 ft | 191 kts | 280° |
| 2026-04-23 11:17 | 38.91351 | 16.17279 | 1965 ft | 211 kts | 281° |
| 2026-04-23 11:18 | 38.91575 | 16.15361 | 2542 ft | 220 kts | 281° |
| 2026-04-23 11:18 | 38.91799 | 16.13397 | 3292 ft | 225 kts | 282° |
| 2026-04-23 11:18 | 38.92380 | 16.11446 | 3608 ft | 249 kts | 310° |
| 2026-04-23 11:18 | 38.93545 | 16.09740 | 4366 ft | 257 kts | 314° |
| 2026-04-23 11:19 | 38.94327 | 16.08591 | 4988 ft | 260 kts | 313° |
| 2026-04-23 11:19 | 38.95524 | 16.06812 | 5871 ft | 264 kts | 312° |
| 2026-04-23 11:19 | 38.97112 | 16.04427 | 7231 ft | 261 kts | 312° |
| 2026-04-23 11:19 | 38.97897 | 16.03244 | 7813 ft | 263 kts | 311° |
| 2026-04-23 11:20 | 38.99482 | 16.00847 | 8953 ft | 269 kts | 311° |
| 2026-04-23 11:20 | 39.00305 | 15.99598 | 9546 ft | 271 kts | 310° |
| 2026-04-23 11:20 | 39.01503 | 15.97779 | 10468 ft | 270 kts | 310° |
| 2026-04-23 11:20 | 39.02764 | 15.95864 | 10805 ft | 293 kts | 311° |
| 2026-04-23 11:21 | 39.04359 | 15.94085 | 11022 ft | 317 kts | 330° |
| 2026-04-23 11:21 | 39.06395 | 15.92852 | 11614 ft | 326 kts | 334° |
| 2026-04-23 11:21 | 39.08486 | 15.91653 | 12421 ft | 329 kts | 334° |
| 2026-04-23 11:21 | 39.10559 | 15.90458 | 13267 ft | 331 kts | 334° |
| 2026-04-23 11:22 | 39.12672 | 15.89231 | 14053 ft | 334 kts | 334° |
| 2026-04-23 11:22 | 39.14804 | 15.87981 | 14781 ft | 337 kts | 333° |
| 2026-04-23 11:22 | 39.16943 | 15.86721 | 15538 ft | 339 kts | 333° |
| 2026-04-23 11:22 | 39.19100 | 15.85446 | 16253 ft | 342 kts | 333° |
| 2026-04-23 11:23 | 39.21277 | 15.84157 | 16973 ft | 345 kts | 333° |
| 2026-04-23 11:23 | 39.23469 | 15.82858 | 17683 ft | 348 kts | 333° |
| 2026-04-23 11:23 | 39.25681 | 15.81546 | 18379 ft | 351 kts | 333° |
| 2026-04-23 11:23 | 39.27862 | 15.80193 | 18982 ft | 352 kts | 327° |
| 2026-04-23 11:24 | 39.29802 | 15.78272 | 19643 ft | 351 kts | 317° |
| 2026-04-23 11:24 | 39.31647 | 15.76204 | 20309 ft | 352 kts | 317° |
| 2026-04-23 11:24 | 39.33499 | 15.74127 | 20956 ft | 353 kts | 317° |
| 2026-04-23 11:24 | 39.35364 | 15.72043 | 21569 ft | 355 kts | 317° |
| 2026-04-23 11:25 | 39.37241 | 15.69957 | 22178 ft | 357 kts | 317° |
| 2026-04-23 11:25 | 39.39134 | 15.67858 | 22786 ft | 358 kts | 316° |
| 2026-04-23 11:25 | 39.41008 | 15.65784 | 23395 ft | 360 kts | 317° |
| 2026-04-23 11:25 | 39.42926 | 15.63664 | 23823 ft | 365 kts | 317° |
| 2026-04-23 11:26 | 39.44870 | 15.61513 | 24198 ft | 369 kts | 317° |
| 2026-04-23 11:26 | 39.46832 | 15.59345 | 24662 ft | 371 kts | 317° |
| 2026-04-23 11:26 | 39.48804 | 15.57163 | 25147 ft | 372 kts | 317° |
| 2026-04-23 11:26 | 39.50756 | 15.55001 | 25589 ft | 374 kts | 317° |
| 2026-04-23 11:27 | 39.52743 | 15.52799 | 26016 ft | 376 kts | 317° |
| 2026-04-23 11:27 | 39.54735 | 15.50590 | 26427 ft | 379 kts | 317° |
| 2026-04-23 11:27 | 39.56743 | 15.48360 | 26849 ft | 381 kts | 317° |
| 2026-04-23 11:27 | 39.58761 | 15.46118 | 27255 ft | 383 kts | 317° |
| 2026-04-23 11:28 | 39.60793 | 15.43859 | 27660 ft | 385 kts | 317° |
| 2026-04-23 11:28 | 39.62827 | 15.41595 | 28023 ft | 387 kts | 317° |
| 2026-04-23 11:28 | 39.64875 | 15.39315 | 28411 ft | 389 kts | 317° |
| 2026-04-23 11:28 | 39.66913 | 15.37044 | 28773 ft | 391 kts | 317° |
| 2026-04-23 11:29 | 39.69053 | 15.34860 | 29171 ft | 395 kts | 324° |
| 2026-04-23 11:29 | 39.71498 | 15.33198 | 29705 ft | 397 kts | 332° |
| 2026-04-23 11:29 | 39.74077 | 15.31932 | 30280 ft | 397 kts | 338° |
| 2026-04-23 11:29 | 39.76795 | 15.31160 | 30679 ft | 403 kts | 346° |
| 2026-04-23 11:30 | 39.79609 | 15.30880 | 31009 ft | 409 kts | 353° |
| 2026-04-23 11:30 | 39.82491 | 15.31122 | 31314 ft | 417 kts | 0° |
| 2026-04-23 11:30 | 39.85365 | 15.31669 | 31673 ft | 418 kts | 2° |
| 2026-04-23 11:30 | 39.88235 | 15.32271 | 32054 ft | 418 kts | 2° |
| 2026-04-23 11:31 | 39.91063 | 15.32876 | 32418 ft | 418 kts | 3° |
| 2026-04-23 11:31 | 39.93938 | 15.33483 | 32736 ft | 418 kts | 3° |
| 2026-04-23 11:31 | 39.96814 | 15.34080 | 33091 ft | 417 kts | 3° |
| 2026-04-23 11:31 | 39.99682 | 15.34665 | 33466 ft | 416 kts | 2° |
| 2026-04-23 11:32 | 40.02543 | 15.35243 | 33802 ft | 416 kts | 2° |
| 2026-04-23 11:32 | 40.05411 | 15.35818 | 34103 ft | 417 kts | 2° |
| 2026-04-23 11:32 | 40.08277 | 15.36391 | 34394 ft | 416 kts | 3° |
| 2026-04-23 11:32 | 40.11145 | 15.36964 | 34648 ft | 417 kts | 4° |
| 2026-04-23 11:33 | 40.14016 | 15.37538 | 34877 ft | 417 kts | 4° |
| 2026-04-23 11:33 | 40.16884 | 15.38113 | 35084 ft | 417 kts | 4° |
| 2026-04-23 11:33 | 40.19763 | 15.38691 | 35085 ft | 419 kts | 4° |
| 2026-04-23 11:34 | 40.25520 | 15.39850 | 35098 ft | 416 kts | 4° |
| 2026-04-23 11:34 | 40.31179 | 15.40992 | 35123 ft | 412 kts | 4° |
| 2026-04-23 11:35 | 40.36845 | 15.42134 | 35110 ft | 411 kts | 5° |
| 2026-04-23 11:35 | 40.42497 | 15.43276 | 35117 ft | 410 kts | 5° |
| 2026-04-23 11:36 | 40.48093 | 15.44408 | 35128 ft | 410 kts | 5° |
| 2026-04-23 11:36 | 40.53751 | 15.45555 | 35138 ft | 411 kts | 6° |
| 2026-04-23 11:37 | 40.59436 | 15.46710 | 35132 ft | 413 kts | 6° |
| 2026-04-23 11:37 | 40.65107 | 15.47628 | 35135 ft | 414 kts | 3° |
| 2026-04-23 11:38 | 40.70860 | 15.48325 | 35136 ft | 414 kts | 2° |
| 2026-04-23 11:38 | 40.76619 | 15.49023 | 35144 ft | 416 kts | 4° |
| 2026-04-23 11:39 | 40.82362 | 15.49748 | 35142 ft | 416 kts | 4° |
| 2026-04-23 11:39 | 40.88140 | 15.50493 | 35147 ft | 417 kts | 4° |
| 2026-04-23 11:40 | 40.93923 | 15.51245 | 35141 ft | 417 kts | 4° |
| 2026-04-23 11:40 | 40.99693 | 15.51996 | 35153 ft | 416 kts | 5° |
| 2026-04-23 11:41 | 41.05461 | 15.52749 | 35152 ft | 415 kts | 5° |
| 2026-04-23 11:41 | 41.11167 | 15.53494 | 35154 ft | 413 kts | 5° |
| 2026-04-23 11:42 | 41.16889 | 15.54242 | 35166 ft | 412 kts | 5° |
| 2026-04-23 11:42 | 41.22589 | 15.54989 | 35173 ft | 411 kts | 5° |
| 2026-04-23 11:43 | 41.28267 | 15.55735 | 35179 ft | 409 kts | 5° |
| 2026-04-23 11:43 | 41.33928 | 15.56479 | 35180 ft | 408 kts | 5° |
| 2026-04-23 11:44 | 41.39549 | 15.57219 | 35181 ft | 408 kts | 6° |
| 2026-04-23 11:44 | 41.45204 | 15.57966 | 35186 ft | 408 kts | 6° |
| 2026-04-23 11:45 | 41.50872 | 15.58715 | 35155 ft | 409 kts | 6° |
| 2026-04-23 11:45 | 41.56506 | 15.59461 | 35158 ft | 409 kts | 7° |
| 2026-04-23 11:46 | 41.62185 | 15.60215 | 35154 ft | 409 kts | 7° |
| 2026-04-23 11:46 | 41.67833 | 15.60966 | 35163 ft | 410 kts | 7° |
| 2026-04-23 11:47 | 41.73519 | 15.61723 | 35161 ft | 410 kts | 7° |
| 2026-04-23 11:47 | 41.79207 | 15.62481 | 35183 ft | 411 kts | 7° |
| 2026-04-23 11:48 | 41.84898 | 15.63242 | 35189 ft | 411 kts | 7° |
| 2026-04-23 11:48 | 41.90558 | 15.63999 | 35180 ft | 411 kts | 7° |
| 2026-04-23 11:49 | 41.96262 | 15.64764 | 35179 ft | 411 kts | 8° |
| 2026-04-23 11:49 | 42.01955 | 15.65528 | 35190 ft | 411 kts | 8° |
| 2026-04-23 11:50 | 42.07609 | 15.66289 | 35182 ft | 410 kts | 8° |
| 2026-04-23 11:50 | 42.13288 | 15.67055 | 35184 ft | 410 kts | 8° |
| 2026-04-23 11:51 | 42.18961 | 15.67821 | 35173 ft | 409 kts | 9° |
| 2026-04-23 11:51 | 42.24592 | 15.68583 | 35178 ft | 408 kts | 9° |
| 2026-04-23 11:52 | 42.30244 | 15.69349 | 35175 ft | 408 kts | 9° |
| 2026-04-23 11:52 | 42.35902 | 15.70118 | 35161 ft | 408 kts | 9° |
| 2026-04-23 11:53 | 42.41562 | 15.70888 | 35177 ft | 408 kts | 9° |
| 2026-04-23 11:53 | 42.47230 | 15.71661 | 35181 ft | 408 kts | 9° |
| 2026-04-23 11:54 | 42.52854 | 15.72429 | 35178 ft | 409 kts | 9° |
| 2026-04-23 11:54 | 42.58521 | 15.73204 | 35179 ft | 409 kts | 10° |
| 2026-04-23 11:55 | 42.64191 | 15.73981 | 35178 ft | 409 kts | 10° |
| 2026-04-23 11:55 | 42.69813 | 15.74792 | 35176 ft | 407 kts | 13° |
| 2026-04-23 11:56 | 42.75207 | 15.76864 | 35174 ft | 401 kts | 22° |
| 2026-04-23 11:56 | 42.80508 | 15.79278 | 35169 ft | 400 kts | 22° |
| 2026-04-23 11:57 | 42.85752 | 15.81653 | 35171 ft | 399 kts | 22° |
| 2026-04-23 11:57 | 42.91019 | 15.84019 | 35174 ft | 398 kts | 22° |
| 2026-04-23 11:58 | 42.96292 | 15.86382 | 35166 ft | 397 kts | 22° |
| 2026-04-23 11:58 | 43.01539 | 15.88736 | 35179 ft | 397 kts | 22° |
| 2026-04-23 11:59 | 43.06764 | 15.91084 | 35167 ft | 397 kts | 22° |
| 2026-04-23 11:59 | 43.12023 | 15.93451 | 35138 ft | 398 kts | 22° |
| 2026-04-23 12:00 | 43.17307 | 15.95834 | 35156 ft | 399 kts | 22° |
| 2026-04-23 12:00 | 43.22558 | 15.98207 | 35161 ft | 400 kts | 22° |
| 2026-04-23 12:01 | 43.27852 | 16.00603 | 35167 ft | 402 kts | 22° |
| 2026-04-23 12:01 | 43.33171 | 16.03015 | 35144 ft | 403 kts | 22° |
| 2026-04-23 12:02 | 43.38476 | 16.05424 | 35145 ft | 404 kts | 22° |
| 2026-04-23 12:02 | 43.43831 | 16.07861 | 35134 ft | 405 kts | 22° |
| 2026-04-23 12:03 | 43.49180 | 16.10299 | 35113 ft | 405 kts | 22° |
| 2026-04-23 12:03 | 43.54546 | 16.12750 | 35124 ft | 405 kts | 22° |
| 2026-04-23 12:04 | 43.59871 | 16.15187 | 35141 ft | 405 kts | 22° |
| 2026-04-23 12:04 | 43.65219 | 16.17639 | 35138 ft | 405 kts | 22° |
| 2026-04-23 12:05 | 43.70569 | 16.20096 | 35141 ft | 404 kts | 22° |
| 2026-04-23 12:05 | 43.75902 | 16.22550 | 35131 ft | 403 kts | 22° |
| 2026-04-23 12:06 | 43.81193 | 16.24989 | 35134 ft | 403 kts | 22° |
| 2026-04-23 12:06 | 43.89187 | 16.28684 | 35134 ft | 402 kts | 22° |
| 2026-04-23 12:07 | 43.94476 | 16.31134 | 35141 ft | 402 kts | 22° |
| 2026-04-23 12:07 | 43.99796 | 16.33604 | 35143 ft | 402 kts | 22° |
| 2026-04-23 12:08 | 44.05073 | 16.36058 | 35146 ft | 402 kts | 22° |
| 2026-04-23 12:08 | 44.10393 | 16.38536 | 35155 ft | 402 kts | 22° |
| 2026-04-23 12:09 | 44.15689 | 16.41008 | 35160 ft | 402 kts | 22° |
| 2026-04-23 12:09 | 44.21003 | 16.43493 | 35173 ft | 401 kts | 22° |
| 2026-04-23 12:10 | 44.26260 | 16.45956 | 35162 ft | 399 kts | 22° |
| 2026-04-23 12:10 | 44.30636 | 16.48009 | 35164 ft | 398 kts | 22° |
| 2026-04-23 12:11 | 44.35876 | 16.50473 | 35168 ft | 395 kts | 22° |
| 2026-04-23 12:11 | 44.41080 | 16.52924 | 35174 ft | 393 kts | 22° |
| 2026-04-23 12:12 | 44.46232 | 16.55356 | 35173 ft | 393 kts | 22° |
| 2026-04-23 12:12 | 44.51421 | 16.57810 | 35190 ft | 392 kts | 22° |
| 2026-04-23 12:13 | 44.56597 | 16.60262 | 35165 ft | 392 kts | 21° |
| 2026-04-23 12:13 | 44.61756 | 16.62711 | 35184 ft | 394 kts | 21° |
| 2026-04-23 12:14 | 44.66962 | 16.65187 | 35190 ft | 396 kts | 21° |
| 2026-04-23 12:14 | 44.72197 | 16.67681 | 35194 ft | 398 kts | 21° |
| 2026-04-23 12:15 | 44.77438 | 16.70183 | 35180 ft | 400 kts | 21° |
| 2026-04-23 12:15 | 44.82729 | 16.72713 | 35191 ft | 402 kts | 21° |
| 2026-04-23 12:16 | 44.88049 | 16.75262 | 35185 ft | 404 kts | 21° |
| 2026-04-23 12:16 | 44.93391 | 16.77827 | 35178 ft | 406 kts | 21° |
| 2026-04-23 12:17 | 44.98751 | 16.80405 | 35181 ft | 406 kts | 21° |
| 2026-04-23 12:17 | 45.04072 | 16.82969 | 35177 ft | 406 kts | 21° |
| 2026-04-23 12:18 | 45.09439 | 16.85561 | 35180 ft | 406 kts | 21° |
| 2026-04-23 12:18 | 45.14796 | 16.88154 | 35170 ft | 406 kts | 21° |
| 2026-04-23 12:19 | 45.20098 | 16.90724 | 35176 ft | 405 kts | 21° |
| 2026-04-23 12:19 | 45.25426 | 16.93313 | 35169 ft | 404 kts | 21° |
| 2026-04-23 12:20 | 45.30732 | 16.95896 | 35164 ft | 403 kts | 20° |
| 2026-04-23 12:20 | 45.36034 | 16.98482 | 35172 ft | 401 kts | 20° |
| 2026-04-23 12:21 | 45.41285 | 17.01048 | 35169 ft | 401 kts | 20° |
| 2026-04-23 12:21 | 45.46936 | 17.03816 | 35166 ft | 400 kts | 21° |
| 2026-04-23 12:22 | 45.52215 | 17.06407 | 35167 ft | 400 kts | 21° |
| 2026-04-23 12:22 | 45.57485 | 17.08998 | 35165 ft | 400 kts | 21° |
| 2026-04-23 12:23 | 45.62755 | 17.11595 | 35167 ft | 401 kts | 21° |
| 2026-04-23 12:23 | 45.68000 | 17.14184 | 35165 ft | 401 kts | 20° |
| 2026-04-23 12:24 | 45.73283 | 17.16798 | 35163 ft | 401 kts | 20° |
| 2026-04-23 12:24 | 45.78572 | 17.19419 | 35158 ft | 401 kts | 21° |
| 2026-04-23 12:25 | 45.83825 | 17.22028 | 35165 ft | 401 kts | 21° |
| 2026-04-23 12:25 | 45.89115 | 17.24662 | 35165 ft | 402 kts | 21° |
| 2026-04-23 12:26 | 45.94408 | 17.27301 | 35158 ft | 402 kts | 20° |
| 2026-04-23 12:26 | 45.99661 | 17.29929 | 35154 ft | 401 kts | 21° |
| 2026-04-23 12:27 | 46.04875 | 17.32816 | 35154 ft | 401 kts | 23° |
| 2026-04-23 12:27 | 46.10048 | 17.35822 | 35147 ft | 401 kts | 23° |
| 2026-04-23 12:28 | 46.15233 | 17.38824 | 35152 ft | 401 kts | 23° |
| 2026-04-23 12:28 | 46.20386 | 17.41790 | 35152 ft | 401 kts | 23° |
| 2026-04-23 12:29 | 46.25579 | 17.44774 | 35143 ft | 401 kts | 23° |
| 2026-04-23 12:29 | 46.30776 | 17.47763 | 35146 ft | 402 kts | 23° |
| 2026-04-23 12:30 | 46.35967 | 17.50754 | 35145 ft | 402 kts | 23° |
| 2026-04-23 12:30 | 46.41172 | 17.53760 | 35143 ft | 402 kts | 23° |
| 2026-04-23 12:31 | 46.46351 | 17.56757 | 35143 ft | 403 kts | 23° |
| 2026-04-23 12:31 | 46.51569 | 17.59783 | 35138 ft | 404 kts | 23° |
| 2026-04-23 12:32 | 46.56786 | 17.62814 | 35140 ft | 404 kts | 23° |
| 2026-04-23 12:32 | 46.62009 | 17.65855 | 35116 ft | 404 kts | 23° |
| 2026-04-23 12:33 | 46.67234 | 17.68904 | 35124 ft | 404 kts | 22° |
| 2026-04-23 12:33 | 46.72417 | 17.71935 | 35127 ft | 403 kts | 22° |
| 2026-04-23 12:34 | 46.77630 | 17.74989 | 35129 ft | 403 kts | 22° |
| 2026-04-23 12:34 | 46.82826 | 17.78040 | 35123 ft | 402 kts | 22° |
| 2026-04-23 12:35 | 46.87988 | 17.81077 | 35117 ft | 401 kts | 23° |
| 2026-04-23 12:35 | 46.93163 | 17.84129 | 35118 ft | 401 kts | 23° |
| 2026-04-23 12:36 | 46.98331 | 17.87182 | 35120 ft | 400 kts | 23° |
| 2026-04-23 12:36 | 47.03507 | 17.90247 | 35122 ft | 400 kts | 23° |
| 2026-04-23 12:37 | 47.08649 | 17.93297 | 35116 ft | 400 kts | 23° |
| 2026-04-23 12:37 | 47.13816 | 17.96369 | 35108 ft | 401 kts | 23° |
| 2026-04-23 12:38 | 47.18988 | 17.99451 | 35100 ft | 400 kts | 23° |
| 2026-04-23 12:38 | 47.24152 | 18.02535 | 35100 ft | 400 kts | 23° |
| 2026-04-23 12:39 | 47.29294 | 18.05611 | 35112 ft | 401 kts | 23° |
| 2026-04-23 12:39 | 47.34466 | 18.08712 | 35104 ft | 401 kts | 23° |
| 2026-04-23 12:40 | 47.39638 | 18.11820 | 35097 ft | 402 kts | 23° |
| 2026-04-23 12:40 | 47.44822 | 18.14941 | 35094 ft | 402 kts | 23° |
| 2026-04-23 12:41 | 47.49983 | 18.18056 | 35098 ft | 402 kts | 23° |
| 2026-04-23 12:41 | 47.55168 | 18.21191 | 35091 ft | 402 kts | 23° |
| 2026-04-23 12:42 | 47.60329 | 18.24319 | 35098 ft | 402 kts | 23° |
| 2026-04-23 12:42 | 47.65522 | 18.27472 | 35079 ft | 403 kts | 23° |
| 2026-04-23 12:43 | 47.70724 | 18.30638 | 35090 ft | 403 kts | 23° |
| 2026-04-23 12:43 | 47.75902 | 18.33797 | 35086 ft | 404 kts | 23° |
| 2026-04-23 12:44 | 47.81101 | 18.36975 | 35084 ft | 404 kts | 23° |
| 2026-04-23 12:44 | 47.86313 | 18.40168 | 35083 ft | 404 kts | 23° |
| 2026-04-23 12:45 | 47.91492 | 18.43347 | 35073 ft | 405 kts | 23° |
| 2026-04-23 12:45 | 47.96713 | 18.46560 | 35081 ft | 405 kts | 23° |
| 2026-04-23 12:46 | 48.01937 | 18.49781 | 35068 ft | 405 kts | 23° |
| 2026-04-23 12:46 | 48.07125 | 18.52987 | 35066 ft | 406 kts | 24° |
| 2026-04-23 12:47 | 48.12340 | 18.56216 | 35062 ft | 405 kts | 24° |
| 2026-04-23 12:47 | 48.17555 | 18.59453 | 35065 ft | 405 kts | 24° |
| 2026-04-23 12:48 | 48.22769 | 18.62697 | 35066 ft | 405 kts | 23° |
| 2026-04-23 12:48 | 48.27944 | 18.65924 | 35069 ft | 405 kts | 23° |
| 2026-04-23 12:49 | 48.33150 | 18.69176 | 35065 ft | 404 kts | 23° |
| 2026-04-23 12:49 | 48.38354 | 18.72435 | 35058 ft | 404 kts | 23° |
| 2026-04-23 12:50 | 48.40924 | 18.74047 | 34946 ft | 397 kts | 23° |
| 2026-04-23 12:50 | 48.43450 | 18.75633 | 34667 ft | 390 kts | 23° |
| 2026-04-23 12:50 | 48.45942 | 18.77199 | 34311 ft | 387 kts | 23° |
| 2026-04-23 12:50 | 48.48385 | 18.78737 | 33957 ft | 383 kts | 23° |
| 2026-04-23 12:51 | 48.50842 | 18.80285 | 33549 ft | 380 kts | 23° |
| 2026-04-23 12:51 | 48.53272 | 18.81817 | 33169 ft | 376 kts | 23° |
| 2026-04-23 12:51 | 48.55677 | 18.83336 | 32803 ft | 373 kts | 23° |
| 2026-04-23 12:51 | 48.58030 | 18.84823 | 32439 ft | 370 kts | 23° |
| 2026-04-23 12:52 | 48.60395 | 18.86319 | 32074 ft | 367 kts | 23° |
| 2026-04-23 12:52 | 48.62743 | 18.87806 | 31718 ft | 364 kts | 23° |
| 2026-04-23 12:52 | 48.65075 | 18.89284 | 31371 ft | 361 kts | 23° |
| 2026-04-23 12:52 | 48.67385 | 18.90749 | 31015 ft | 358 kts | 23° |
| 2026-04-23 12:53 | 48.69678 | 18.92205 | 30668 ft | 356 kts | 23° |
| 2026-04-23 12:53 | 48.71932 | 18.93638 | 30338 ft | 354 kts | 23° |
| 2026-04-23 12:53 | 48.74199 | 18.95081 | 29967 ft | 352 kts | 23° |
| 2026-04-23 12:53 | 48.76459 | 18.96521 | 29560 ft | 350 kts | 22° |
| 2026-04-23 12:54 | 48.78689 | 18.97943 | 29209 ft | 346 kts | 22° |
| 2026-04-23 12:54 | 48.80901 | 18.99355 | 28854 ft | 342 kts | 22° |
| 2026-04-23 12:54 | 48.83089 | 19.00753 | 28490 ft | 339 kts | 22° |
| 2026-04-23 12:54 | 48.85228 | 19.02120 | 28146 ft | 336 kts | 22° |
| 2026-04-23 12:55 | 48.87379 | 19.03497 | 27782 ft | 334 kts | 22° |
| 2026-04-23 12:55 | 48.89515 | 19.04865 | 27437 ft | 332 kts | 22° |
| 2026-04-23 12:55 | 48.91635 | 19.06225 | 27088 ft | 329 kts | 22° |
| 2026-04-23 12:55 | 48.93740 | 19.07576 | 26756 ft | 328 kts | 22° |
| 2026-04-23 12:56 | 48.95842 | 19.08927 | 26401 ft | 326 kts | 22° |
| 2026-04-23 12:56 | 48.97924 | 19.10266 | 26073 ft | 324 kts | 22° |
| 2026-04-23 12:56 | 48.99996 | 19.11599 | 25741 ft | 322 kts | 22° |
| 2026-04-23 12:56 | 49.02059 | 19.12928 | 25404 ft | 321 kts | 22° |
| 2026-04-23 12:57 | 49.04110 | 19.14250 | 25071 ft | 319 kts | 22° |
| 2026-04-23 12:57 | 49.06153 | 19.15569 | 24748 ft | 318 kts | 22° |
| 2026-04-23 12:57 | 49.08164 | 19.16868 | 24413 ft | 317 kts | 22° |
| 2026-04-23 12:57 | 49.10197 | 19.18181 | 24082 ft | 316 kts | 22° |
| 2026-04-23 12:58 | 49.12220 | 19.19490 | 23761 ft | 315 kts | 22° |
| 2026-04-23 12:58 | 49.13563 | 19.20361 | 23493 ft | 316 kts | 23° |
| 2026-04-23 12:58 | 49.15496 | 19.21945 | 23125 ft | 314 kts | 32° |
| 2026-04-23 12:58 | 49.17197 | 19.24029 | 22766 ft | 314 kts | 41° |
| 2026-04-23 12:59 | 49.18784 | 19.26320 | 22424 ft | 312 kts | 41° |
| 2026-04-23 12:59 | 49.20359 | 19.28593 | 22089 ft | 311 kts | 41° |
| 2026-04-23 12:59 | 49.21930 | 19.30843 | 21766 ft | 308 kts | 40° |
| 2026-04-23 12:59 | 49.23502 | 19.33086 | 21427 ft | 307 kts | 40° |
| 2026-04-23 13:00 | 49.25040 | 19.35280 | 21107 ft | 305 kts | 40° |
| 2026-04-23 13:00 | 49.26584 | 19.37486 | 20800 ft | 303 kts | 40° |
| 2026-04-23 13:00 | 49.28123 | 19.39685 | 20463 ft | 302 kts | 40° |
| 2026-04-23 13:00 | 49.29653 | 19.41874 | 20158 ft | 300 kts | 40° |
| 2026-04-23 13:01 | 49.31171 | 19.44048 | 19846 ft | 298 kts | 40° |
| 2026-04-23 13:01 | 49.32692 | 19.46228 | 19513 ft | 297 kts | 40° |
| 2026-04-23 13:01 | 49.34181 | 19.48364 | 19217 ft | 295 kts | 40° |
| 2026-04-23 13:01 | 49.35674 | 19.50509 | 18907 ft | 294 kts | 40° |
| 2026-04-23 13:02 | 49.37167 | 19.52654 | 18614 ft | 293 kts | 39° |
| 2026-04-23 13:02 | 49.38654 | 19.54793 | 18293 ft | 292 kts | 39° |
| 2026-04-23 13:02 | 49.40135 | 19.56925 | 17944 ft | 291 kts | 39° |
| 2026-04-23 13:02 | 49.41609 | 19.59048 | 17604 ft | 290 kts | 39° |
| 2026-04-23 13:03 | 49.43071 | 19.61157 | 17285 ft | 288 kts | 39° |
| 2026-04-23 13:03 | 49.44530 | 19.63263 | 16966 ft | 286 kts | 39° |
| 2026-04-23 13:03 | 49.45947 | 19.65338 | 16648 ft | 284 kts | 41° |
| 2026-04-23 13:03 | 49.47319 | 19.67520 | 16347 ft | 283 kts | 42° |
| 2026-04-23 13:04 | 49.48662 | 19.69716 | 16033 ft | 281 kts | 43° |
| 2026-04-23 13:04 | 49.49995 | 19.71906 | 15727 ft | 279 kts | 43° |
| 2026-04-23 13:04 | 49.51321 | 19.74082 | 15436 ft | 277 kts | 43° |
| 2026-04-23 13:04 | 49.52637 | 19.76239 | 15134 ft | 275 kts | 43° |
| 2026-04-23 13:05 | 49.53949 | 19.78384 | 14837 ft | 274 kts | 42° |
| 2026-04-23 13:05 | 49.55253 | 19.80516 | 14551 ft | 272 kts | 42° |
| 2026-04-23 13:05 | 49.56533 | 19.82607 | 14262 ft | 272 kts | 42° |
| 2026-04-23 13:05 | 49.57830 | 19.84727 | 13970 ft | 271 kts | 42° |
| 2026-04-23 13:06 | 49.60409 | 19.88945 | 13340 ft | 269 kts | 42° |
| 2026-04-23 13:06 | 49.61693 | 19.91049 | 13027 ft | 268 kts | 42° |
| 2026-04-23 13:06 | 49.62966 | 19.93136 | 12738 ft | 266 kts | 42° |
| 2026-04-23 13:07 | 49.64237 | 19.95220 | 12430 ft | 265 kts | 42° |
| 2026-04-23 13:07 | 49.65497 | 19.97288 | 12140 ft | 263 kts | 42° |
| 2026-04-23 13:07 | 49.66743 | 19.99334 | 11861 ft | 262 kts | 42° |
| 2026-04-23 13:07 | 49.67989 | 20.01381 | 11563 ft | 261 kts | 41° |
| 2026-04-23 13:08 | 49.69228 | 20.03420 | 11298 ft | 260 kts | 42° |
| 2026-04-23 13:08 | 49.70463 | 20.05454 | 10995 ft | 259 kts | 42° |
| 2026-04-23 13:08 | 49.71690 | 20.07475 | 10807 ft | 259 kts | 42° |
| 2026-04-23 13:08 | 49.72933 | 20.09522 | 10618 ft | 262 kts | 42° |
| 2026-04-23 13:09 | 49.74172 | 20.11566 | 10413 ft | 264 kts | 41° |
| 2026-04-23 13:09 | 49.75427 | 20.13638 | 10215 ft | 262 kts | 42° |
| 2026-04-23 13:09 | 49.76798 | 20.15404 | 9993 ft | 253 kts | 22° |
| 2026-04-23 13:09 | 49.78466 | 20.16018 | 9816 ft | 243 kts | 0° |
| 2026-04-23 13:10 | 49.80120 | 20.15730 | 9626 ft | 243 kts | 345° |
| 2026-04-23 13:10 | 49.81638 | 20.14586 | 9419 ft | 247 kts | 327° |
| 2026-04-23 13:10 | 49.83019 | 20.12984 | 9264 ft | 249 kts | 326° |
| 2026-04-23 13:10 | 49.84403 | 20.11349 | 9050 ft | 250 kts | 325° |
| 2026-04-23 13:11 | 49.85785 | 20.09711 | 8862 ft | 250 kts | 325° |
| 2026-04-23 13:11 | 49.87171 | 20.08074 | 8668 ft | 250 kts | 325° |
| 2026-04-23 13:11 | 49.88555 | 20.06440 | 8481 ft | 249 kts | 325° |
| 2026-04-23 13:11 | 49.89933 | 20.04814 | 8291 ft | 248 kts | 325° |
| 2026-04-23 13:12 | 49.91308 | 20.03191 | 8100 ft | 247 kts | 324° |
| 2026-04-23 13:12 | 49.92788 | 20.01909 | 7923 ft | 242 kts | 343° |
| 2026-04-23 13:12 | 49.94423 | 20.01381 | 7792 ft | 239 kts | 349° |
| 2026-04-23 13:12 | 49.96061 | 20.00916 | 7633 ft | 237 kts | 348° |
| 2026-04-23 13:13 | 49.97649 | 20.00460 | 7472 ft | 233 kts | 348° |
| 2026-04-23 13:13 | 49.99243 | 20.00198 | 7292 ft | 230 kts | 4° |
| 2026-04-23 13:13 | 50.00737 | 20.01064 | 7155 ft | 232 kts | 30° |
| 2026-04-23 13:13 | 50.01881 | 20.02844 | 6999 ft | 236 kts | 52° |
| 2026-04-23 13:14 | 50.02496 | 20.05259 | 6850 ft | 244 kts | 72° |
| 2026-04-23 13:14 | 50.02844 | 20.07855 | 6700 ft | 247 kts | 73° |
| 2026-04-23 13:14 | 50.03190 | 20.10481 | 6528 ft | 249 kts | 73° |
| 2026-04-23 13:14 | 50.03533 | 20.13090 | 6371 ft | 250 kts | 73° |
| 2026-04-23 13:15 | 50.03891 | 20.15779 | 6191 ft | 252 kts | 73° |
| 2026-04-23 13:15 | 50.04244 | 20.18407 | 6005 ft | 249 kts | 73° |
| 2026-04-23 13:15 | 50.04684 | 20.20974 | 5795 ft | 240 kts | 58° |
| 2026-04-23 13:15 | 50.05744 | 20.22786 | 5669 ft | 220 kts | 24° |
| 2026-04-23 13:16 | 50.07138 | 20.23551 | 5537 ft | 208 kts | 4° |
| 2026-04-23 13:16 | 50.08549 | 20.23503 | 5397 ft | 200 kts | 347° |
| 2026-04-23 13:16 | 50.09903 | 20.23067 | 5277 ft | 199 kts | 346° |
| 2026-04-23 13:16 | 50.11258 | 20.22570 | 5137 ft | 201 kts | 337° |
| 2026-04-23 13:17 | 50.12355 | 20.21310 | 5017 ft | 201 kts | 310° |
| 2026-04-23 13:17 | 50.12912 | 20.19308 | 4815 ft | 211 kts | 275° |
| 2026-04-23 13:17 | 50.12809 | 20.17002 | 4661 ft | 214 kts | 270° |
| 2026-04-23 13:17 | 50.12690 | 20.14695 | 4450 ft | 214 kts | 270° |
| 2026-04-23 13:18 | 50.12495 | 20.12395 | 4273 ft | 212 kts | 265° |
| 2026-04-23 13:18 | 50.12218 | 20.10166 | 4055 ft | 207 kts | 263° |
| 2026-04-23 13:18 | 50.11915 | 20.08005 | 3869 ft | 200 kts | 263° |
| 2026-04-23 13:18 | 50.11623 | 20.05949 | 3674 ft | 192 kts | 264° |
| 2026-04-23 13:19 | 50.11340 | 20.03948 | 3522 ft | 186 kts | 264° |
| 2026-04-23 13:19 | 50.11065 | 20.02005 | 3375 ft | 180 kts | 263° |
| 2026-04-23 13:19 | 50.10802 | 20.00137 | 3218 ft | 173 kts | 264° |
| 2026-04-23 13:19 | 50.10548 | 19.98340 | 3058 ft | 166 kts | 264° |
| 2026-04-23 13:20 | 50.10306 | 19.96610 | 2953 ft | 163 kts | 264° |
| 2026-04-23 13:20 | 50.10064 | 19.94878 | 2741 ft | 166 kts | 265° |
| 2026-04-23 13:20 | 50.09816 | 19.93122 | 2519 ft | 166 kts | 264° |
| 2026-04-23 13:20 | 50.09573 | 19.91384 | 2289 ft | 160 kts | 263° |
| 2026-04-23 13:21 | 50.09341 | 19.89735 | 2071 ft | 151 kts | 263° |
| 2026-04-23 13:21 | 50.09122 | 19.88166 | 1876 ft | 148 kts | 264° |
| 2026-04-23 13:21 | 50.08899 | 19.86619 | 1682 ft | 146 kts | 264° |
| 2026-04-23 13:21 | 50.08686 | 19.85091 | 1486 ft | 141 kts | 263° |
| 2026-04-23 13:22 | 50.08481 | 19.83586 | 1304 ft | 141 kts | 263° |
| 2026-04-23 13:22 | 50.08268 | 19.82071 | 1116 ft | 144 kts | 261° |
| 2026-04-23 13:22 | 50.08063 | 19.80578 | 929 ft | 140 kts | 261° |
| 2026-04-23 13:22 | 50.07861 | 19.79152 | 799 ft | 121 kts | 260° |
| 2026-04-23 13:23 | 50.07735 | 19.78204 | 798 ft | 58 kts | 258° |
| 2026-04-23 13:23 | 50.07664 | 19.77688 | 798 ft | 41 kts | 257° |
| 2026-04-23 13:23 | 50.07626 | 19.77413 | 798 ft | 23 kts | 258° |
| 2026-04-23 13:23 | 50.07593 | 19.77177 | 801 ft | 22 kts | 259° |
| 2026-04-23 13:24 | 50.07563 | 19.76946 | 801 ft | 21 kts | 252° |
| 2026-04-23 13:24 | 50.07483 | 19.76841 | 800 ft | 16 kts | 170° |
| 2026-04-23 13:24 | 50.07374 | 19.76880 | 799 ft | 16 kts | 168° |
| 2026-04-23 13:24 | 50.07310 | 19.76977 | 799 ft | 15 kts | 86° |
| 2026-04-23 13:25 | 50.07330 | 19.77129 | 799 ft | 14 kts | 77° |
| 2026-04-23 13:25 | 50.07351 | 19.77275 | 799 ft | 14 kts | 78° |
| 2026-04-23 13:25 | 50.07371 | 19.77416 | 799 ft | 13 kts | 78° |
| 2026-04-23 13:25 | 50.07390 | 19.77552 | 799 ft | 13 kts | 78° |
| 2026-04-23 13:26 | 50.07410 | 19.77697 | 799 ft | 15 kts | 78° |
| 2026-04-23 13:26 | 50.07433 | 19.77869 | 799 ft | 19 kts | 78° |
| 2026-04-23 13:26 | 50.07465 | 19.78086 | 799 ft | 21 kts | 77° |
| 2026-04-23 13:26 | 50.07494 | 19.78301 | 799 ft | 20 kts | 78° |
| 2026-04-23 13:27 | 50.07524 | 19.78513 | 799 ft | 20 kts | 77° |
| 2026-04-23 13:27 | 50.07552 | 19.78718 | 799 ft | 19 kts | 77° |
| 2026-04-23 13:27 | 50.07579 | 19.78916 | 799 ft | 18 kts | 77° |
| 2026-04-23 13:27 | 50.07606 | 19.79108 | 799 ft | 18 kts | 78° |
| 2026-04-23 13:28 | 50.07632 | 19.79292 | 799 ft | 17 kts | 77° |
| 2026-04-23 13:28 | 50.07656 | 19.79469 | 799 ft | 17 kts | 77° |
| 2026-04-23 13:28 | 50.07681 | 19.79640 | 799 ft | 16 kts | 77° |
| 2026-04-23 13:28 | 50.07703 | 19.79799 | 799 ft | 12 kts | 77° |
| 2026-04-23 13:29 | 50.07663 | 19.79883 | 799 ft | 12 kts | 168° |
| 2026-04-23 13:29 | 50.07585 | 19.79908 | 799 ft | 11 kts | 168° |
| 2026-04-23 13:29 | 50.07510 | 19.79933 | 799 ft | 11 kts | 168° |
| 2026-04-23 13:29 | 50.07438 | 19.79956 | 799 ft | 11 kts | 168° |
| 2026-04-23 13:30 | 50.07385 | 19.79915 | 799 ft | 8 kts | 253° |
| 2026-04-23 13:30 | 50.07355 | 19.79857 | 799 ft | 6 kts | 189° |
| 2026-04-23 13:30 | 50.07332 | 19.79869 | 799 ft | 3 kts | 153° |
| 2026-04-23 13:30 | 50.07304 | 19.79882 | 799 ft | 0 kts | 167° |
| 2026-04-23 13:31 | 50.07300 | 19.79884 | 799 ft | 1 kts | 167° |
| 2026-04-23 13:31 | 50.07290 | 19.79887 | 799 ft | 0 kts | 168° |
| 2026-04-23 13:31 | 50.07289 | 19.79887 | 799 ft | 0 kts | 168° |